This is the latest recevied weather packets stored in our database for station/object VE3TEJ. If no packets are shown the sender has not sent any weather packets the latest 10 day(s).
| Time | Temp. | Humidity | Pressure | Rain* | Wind** | Luminosity | Snow |
|---|---|---|---|---|---|---|---|
| 1777586236 | 8.33° C | 54% | 1011.9 hPa | 0 mm | - | - | - |
| 1777585936 | 8.33° C | 53% | 1012 hPa | 0 mm | - | - | - |
| 1777585636 | 8.33° C | 54% | 1011.7 hPa | 0 mm | - | - | - |
| 1777585337 | 8.33° C | 53% | 1011.8 hPa | 0 mm | - | - | - |
| 1777585037 | 8.33° C | 55% | 1011.8 hPa | 0 mm | - | - | - |
| 1777584737 | 8.33° C | 54% | 1011.9 hPa | 0 mm | - | - | - |
| 1777584438 | 8.33° C | 54% | 1011.8 hPa | 0 mm | - | - | - |
| 1777584138 | 8.33° C | 54% | 1011.6 hPa | 0 mm | - | - | - |
| 1777583838 | 8.33° C | 56% | 1011.5 hPa | 0 mm | - | - | - |
| 1777583536 | 8.33° C | 55% | 1011.5 hPa | 0 mm | - | - | - |
| 1777583236 | 8.89° C | 54% | 1011.5 hPa | 0 mm | - | - | - |
| 1777582936 | 9.44° C | 53% | 1011.6 hPa | 0 mm | - | - | - |
| 1777582636 | 10° C | 53% | 1011.6 hPa | 0 mm | - | - | - |
| 1777582336 | 10° C | 53% | 1011.5 hPa | 0 mm | - | - | - |
| 1777582036 | 10.56° C | 52% | 1011.3 hPa | 0 mm | - | - | - |
| 1777581736 | 10° C | 52% | 1011.4 hPa | 0 mm | - | - | - |
| 1777581437 | 10° C | 52% | 1011.3 hPa | 0 mm | - | - | - |
| 1777581137 | 10.56° C | 52% | 1011.4 hPa | 0 mm | - | - | - |
| 1777580837 | 10.56° C | 51% | 1011.4 hPa | 0 mm | - | - | - |
| 1777580537 | 10.56° C | 52% | 1011.3 hPa | 0 mm | - | - | - |
| 1777580236 | 10.56° C | 52% | 1011.2 hPa | 0 mm | - | - | - |
| 1777579937 | 10.56° C | 52% | 1011.2 hPa | 0 mm | - | - | - |
| 1777579637 | 10.56° C | 55% | 1011 hPa | 0 mm | - | - | - |
| 1777579337 | 10.56° C | 52% | 1011.1 hPa | 0 mm | - | - | - |
| 1777579037 | 10.56° C | 56% | 1011 hPa | 0 mm | - | - | - |
* Rain latest hour (hover to see other rain measurements)
** Current wind speed in m/s (hover to see current wind gust speed)